SARI METAR and TAF weather

Enter ICAO airport designator
Station Type Date Time Source
SARI METAR 2019/04/18 14:00 UTC NOAA

SARI 181400Z 07002KT 9999 FEW025 23/19 Q1016


Station Type Date Time Source
SARI Decoded METAR 2019/04/18 14:00 UTC NOAA

Iguazu Aerodrome, Argentina (SARI) 25-44S 054-28W 270M
Apr 18, 2019 - 10:00 AM EDT / 2019.04.18 1400 UTC
Wind: from the ENE (070 degrees) at 2 MPH (2 KT):0
Visibility: greater than 7 mile(s):0
Sky conditions: mostly clear
Temperature: 73 F (23 C)
Dew Point: 66 F (19 C)
Relative Humidity: 78%
Pressure (altimeter): 30.00 in. Hg (1016 hPa)
ob: SARI 181400Z 07002KT 9999 FEW025 23/19 Q1016
cycle: 14

Station Type Date Time Source
SARI TAF 2019/04/18 12:24 UTC NOAA

TAF SARI 181100Z 1812/1912 05005KT 2000 BR FEW002 TX28/1818Z TN15/1809Z
BECMG 1814/1816 CAVOK PROB30 1818/1821 SCT020

Example: see airport list